Wednesday, October 22, 2014, 9:17 PM CDT
Back to Local

KHDC, Hammond, Hammond Municipal Airport

Location: Hammond, LA, United States Lat: 30.521
Local Time: 9:17 PM CDT ( 2:17 GMT) Lon: -90.418
Time Zone: US/Central Elev: 42 ft

Show me the last for .
Show Coded

Time T Td Feel RH Dir Speed Gust Alt SLP Vis Weather Sky Remarks
2014-10-22 20:55 61 52 - 72 360° 6 - 30.09 - 10 CLR None
2014-10-22 20:35 61 52 - 72 20° 5 - 30.08 - 10 CLR None
2014-10-22 20:15 63 52 - 67 360° 3 - 30.08 - 10 CLR None
2014-10-22 19:55 63 52 - 67 - Calm - 30.08 - 0 CLR None
2014-10-22 19:35 63 54 - 72 10° 5 - 30.07 - 10 CLR None
2014-10-22 19:15 64 54 - 67 20° 3 - 30.07 - 0 CLR None
2014-10-22 18:55 68 54 - 60 - Calm - 30.06 - 10 CLR None
2014-10-22 18:35 70 54 - 56 - Calm - 30.06 - 10 CLR None
2014-10-22 18:15 73 48 76 40 - Calm - 30.05 - 10 CLR None
2014-10-22 17:55 77 46 - 33 30° 5 - 30.05 - 10 CLR None
2014-10-22 17:35 79 46 - 31 30° 5 - 30.05 - 10 CLR None
2014-10-22 17:15 79 45 - 29 40° 5 - 30.05 - 0 CLR None
2014-10-22 16:55 81 45 - 28 20° 5 - 30.05 - 10 CLR None
2014-10-22 16:35 81 45 - 28 40° 5 - 30.05 - 10 CLR None
2014-10-22 16:15 81 46 - 30 40° 7 - 30.04 - 10 CLR None
2014-10-22 15:55 81 45 - 28 30° 8 - 30.05 - 10 CLR None
2014-10-22 15:35 82 45 - 26 50° 7 - 30.05 - 10 CLR None
2014-10-22 15:15 81 45 - 28 30° 5 - 30.05 - 10 CLR None
2014-10-22 14:55 81 46 - 30 350° 10 - 30.05 - 10 CLR None
2014-10-22 14:35 81 45 - 28 40° 7 - 30.06 - 10 CLR None
2014-10-22 14:15 81 46 - 30 350° 8 - 30.06 - 10 CLR None
2014-10-22 13:55 81 43 - 26 50° 7 - 30.07 - 10 CLR None
2014-10-22 13:35 81 43 - 26 360° 5 - 30.07 - 10 CLR None
2014-10-22 13:15 79 45 - 29 20° 7 - 30.08 - 10 CLR None
2014-10-22 12:55 79 45 - 29 10° 6 - 30.09 - 10 CLR None
2014-10-22 12:35 79 45 - 29 40° 7 - 30.10 - 10 CLR None
2014-10-22 12:15 79 50 - 36 30° 7 - 30.11 - 10 CLR None
2014-10-22 11:55 77 50 - 38 40° 8 - 30.12 - 10 CLR None
2014-10-22 11:35 77 48 - 36 40° 7 - 30.13 - 10 CLR None
2014-10-22 11:15 75 48 - 38 40° 6 - 30.13 - 10 CLR None
2014-10-22 10:55 75 50 77 41 70° 7 - 30.13 - 10 CLR None
2014-10-22 10:35 73 50 76 43 60° 9 - 30.13 - 10 CLR None
2014-10-22 10:15 72 50 76 46 80° 9 - 30.13 - 10 CLR None
2014-10-22 09:55 72 50 76 46 80° 8 - 30.12 - 10 CLR None
2014-10-22 09:15 68 52 - 56 60° 7 - 30.12 - 10 CLR None
2014-10-22 08:55 66 52 - 59 60° 6 - 30.12 - 10 CLR None
2014-10-22 08:35 64 52 - 63 50° 6 - 30.12 - 10 CLR None
2014-10-22 08:15 63 52 - 67 40° 6 - 30.12 - 10 CLR None
2014-10-22 07:55 61 52 - 72 30° 3 - 30.11 - 10 CLR None
2014-10-22 07:35 59 52 - 77 30° 5 - 30.10 - 10 CLR None
2014-10-22 07:15 59 52 - 77 20° 5 - 30.08 - 10 CLR None
2014-10-22 06:55 59 52 - 77 40° 3 - 30.08 - 10 CLR None
2014-10-22 06:35 59 54 - 82 30° 5 - 30.08 - 10 CLR None
2014-10-22 06:15 59 54 - 82 30° 5 - 30.08 - 10 CLR None
2014-10-22 05:55 59 54 - 82 30° 3 - 30.08 - 10 CLR None
2014-10-22 05:35 59 54 - 82 30° 5 - 30.07 - 10 CLR None
2014-10-22 05:15 57 54 - 87 10° 6 - 30.06 - 10 CLR None
2014-10-22 04:55 55 54 - 93 20° 3 - 30.06 - 10 CLR None
2014-10-22 04:35 55 52 - 87 - Calm - 30.06 - 10 CLR None
2014-10-22 04:15 55 52 - 87 350° 3 - 30.06 - 10 CLR None
2014-10-22 03:55 55 52 - 87 - Calm - 30.05 - 10 CLR None
2014-10-22 03:35 55 54 - 93 - Calm - 30.05 - 10 CLR None
2014-10-22 03:15 55 54 - 93 - Calm - 30.05 - 10 CLR None
2014-10-22 02:55 55 52 - 87 340° 3 - 30.04 - 10 CLR None
2014-10-22 02:35 57 54 - 87 360° 3 - 30.04 - 10 CLR None
2014-10-22 01:55 61 55 - 82 20° 5 - 30.04 - 10 CLR None
2014-10-22 01:35 57 54 - 87 10° 6 - 30.04 - 10 CLR None
2014-10-22 01:15 55 54 - 93 360° 5 - 30.05 - 10 CLR None
2014-10-22 00:35 57 54 - 87 - Calm - 30.05 - 10 CLR None
2014-10-22 00:15 57 54 - 87 - Calm - 30.05 - 10 CLR None
2014-10-21 23:55 59 54 - 82 - Calm - 30.06 - 10 CLR None
2014-10-21 23:35 59 54 - 82 - Calm - 30.06 - 10 CLR None
2014-10-21 23:15 59 55 - 87 - Calm - 30.06 - 10 CLR None
2014-10-21 22:55 61 55 - 82 350° 3 - 30.06 - 10 CLR None
2014-10-21 22:35 61 55 - 82 360° 5 - 30.05 - 10 CLR None
2014-10-21 22:15 64 55 - 72 20° 5 - 30.05 - 10 CLR None
2014-10-21 21:55 66 55 - 68 20° 5 - 30.05 - 10 CLR None
2014-10-21 21:35 63 55 - 77 20° 5 - 30.05 - 10 CLR None

Support USWX by starting your Amazon purchase here.